createdAt,value
2018-06-09T00:01:08.356Z,7.30
2018-06-09T00:03:36.913Z,8.40
2018-06-09T00:06:05.455Z,9.70
2018-06-09T00:08:33.970Z,8.97
2018-06-09T00:11:02.396Z,9.27
2018-06-09T00:13:30.947Z,10.07
2018-06-09T00:15:59.656Z,9.43
2018-06-09T00:18:28.083Z,9.90
2018-06-09T00:20:56.540Z,9.40
2018-06-09T00:23:25.138Z,9.50
2018-06-09T00:25:53.787Z,9.00
2018-06-09T00:28:22.197Z,9.27
2018-06-09T00:30:50.760Z,10.80
2018-06-09T00:33:19.249Z,10.10
2018-06-09T00:35:47.685Z,10.73
2018-06-09T00:38:16.143Z,10.90
2018-06-09T00:40:44.711Z,10.47
2018-06-09T00:43:13.156Z,10.70
2018-06-09T00:45:41.579Z,12.00
2018-06-09T00:48:10.033Z,12.37
2018-06-09T00:50:38.452Z,11.53
2018-06-09T00:53:07.228Z,11.10
2018-06-09T00:55:35.672Z,13.07
2018-06-09T00:58:04.130Z,12.07
2018-06-09T01:00:32.626Z,12.10
2018-06-09T01:03:01.051Z,13.97
2018-06-09T01:05:29.503Z,12.23
2018-06-09T01:07:58.475Z,14.47
2018-06-09T01:10:26.906Z,14.20
2018-06-09T01:12:55.325Z,14.23
2018-06-09T01:15:23.803Z,16.00
2018-06-09T01:17:52.236Z,16.97
2018-06-09T01:20:20.724Z,17.17
2018-06-09T01:22:49.155Z,20.53
2018-06-09T01:25:17.619Z,20.27
2018-06-09T01:27:46.042Z,19.30
2018-06-09T01:30:14.473Z,19.17
2018-06-09T01:32:43.189Z,19.70
2018-06-09T01:35:11.618Z,20.30
2018-06-09T01:37:40.125Z,21.13
2018-06-09T01:40:08.576Z,21.07
2018-06-09T01:42:37.424Z,22.93
2018-06-09T01:45:05.859Z,20.70
2018-06-09T01:47:34.298Z,19.57
2018-06-09T01:50:03.078Z,20.50
2018-06-09T01:52:31.684Z,20.73
2018-06-09T01:55:00.133Z,21.00
2018-06-09T01:57:28.566Z,21.40
2018-06-09T01:59:57.047Z,20.90
2018-06-09T02:02:25.483Z,21.50
2018-06-09T02:04:54.010Z,20.37
2018-06-09T02:07:22.476Z,21.50
2018-06-09T02:09:50.955Z,22.77
2018-06-09T02:12:19.551Z,21.40
2018-06-09T02:14:47.978Z,21.83
2018-06-09T02:17:16.403Z,22.83
2018-06-09T02:19:44.855Z,25.37
2018-06-09T02:22:13.317Z,25.20
2018-06-09T02:24:41.764Z,24.03
2018-06-09T02:27:10.187Z,23.67
2018-06-09T02:29:38.606Z,26.03
2018-06-09T02:32:07.068Z,29.00
2018-06-09T02:34:35.467Z,27.60
2018-06-09T02:37:03.873Z,27.00
2018-06-09T02:39:32.923Z,26.93
2018-06-09T02:42:01.931Z,26.67
2018-06-09T02:44:30.460Z,25.60
2018-06-09T02:46:59.081Z,24.47
2018-06-09T02:49:27.518Z,24.80
2018-06-09T02:51:55.975Z,24.27
2018-06-09T02:54:24.403Z,24.77
2018-06-09T02:56:53.079Z,24.27
2018-06-09T02:59:21.522Z,24.03
2018-06-09T03:01:50.257Z,21.33
2018-06-09T03:04:18.716Z,21.87
2018-06-09T03:06:47.168Z,20.97
2018-06-09T03:09:15.808Z,19.53
2018-06-09T03:11:44.199Z,19.90
2018-06-09T03:14:12.678Z,20.80
2018-06-09T03:16:41.125Z,21.17
2018-06-09T03:19:09.632Z,19.43
2018-06-09T03:21:38.422Z,21.07
2018-06-09T03:25:36.650Z,19.90
2018-06-09T03:28:05.081Z,18.47
2018-06-09T03:30:33.479Z,17.97
2018-06-09T03:33:01.936Z,17.77
2018-06-09T03:35:30.688Z,16.60
2018-06-09T03:37:59.191Z,17.20
2018-06-09T03:40:27.659Z,16.70
2018-06-09T03:42:56.045Z,15.73
2018-06-09T03:45:24.507Z,14.07
2018-06-09T03:47:52.929Z,15.30
2018-06-09T03:50:21.388Z,14.93
2018-06-09T03:52:49.823Z,13.70
2018-06-09T03:55:18.280Z,14.47
2018-06-09T03:57:47.020Z,15.07
2018-06-09T04:00:15.423Z,14.63
2018-06-09T04:02:43.892Z,14.73
2018-06-09T04:05:12.521Z,14.20
2018-06-09T04:07:40.956Z,13.67
2018-06-09T04:10:09.412Z,14.90
2018-06-09T04:12:37.813Z,14.70
2018-06-09T04:15:06.302Z,13.73
2018-06-09T04:17:34.744Z,13.60
2018-06-09T04:20:03.211Z,14.40
2018-06-09T04:22:31.696Z,14.40
2018-06-09T04:25:01.092Z,13.50
2018-06-09T04:27:29.795Z,15.30
2018-06-09T04:29:58.972Z,13.87
2018-06-09T04:32:27.696Z,12.40
2018-06-09T04:34:56.413Z,13.63
2018-06-09T04:37:25.296Z,12.57
2018-06-09T04:39:53.756Z,13.43
2018-06-09T04:42:22.227Z,13.50
2018-06-09T04:44:50.665Z,12.53
2018-06-09T04:47:19.160Z,13.93
2018-06-09T04:49:47.615Z,12.10
2018-06-09T04:52:16.099Z,11.80
2018-06-09T04:54:44.493Z,12.67
2018-06-09T04:57:13.510Z,12.83
2018-06-09T04:59:41.922Z,11.60
2018-06-09T05:02:10.344Z,12.97
2018-06-09T05:04:38.761Z,11.90
2018-06-09T05:07:07.228Z,12.37
2018-06-09T05:09:35.741Z,13.40
2018-06-09T05:12:04.297Z,12.70
2018-06-09T05:14:32.962Z,13.20
2018-06-09T05:17:01.453Z,12.17
2018-06-09T05:19:29.892Z,13.77
2018-06-09T05:21:58.299Z,14.63
2018-06-09T05:24:27.103Z,13.07
2018-06-09T05:26:55.821Z,13.40
2018-06-09T05:29:24.341Z,11.67
2018-06-09T05:31:52.889Z,12.73
2018-06-09T05:34:21.304Z,13.40
2018-06-09T05:36:50.064Z,14.47
2018-06-09T05:39:18.759Z,13.10
2018-06-09T05:41:47.175Z,12.67
2018-06-09T05:44:15.606Z,12.30
2018-06-09T05:46:44.063Z,12.37
2018-06-09T05:49:12.487Z,12.90
2018-06-09T05:51:41.050Z,13.20
2018-06-09T05:54:09.585Z,14.40
2018-06-09T05:56:39.020Z,12.83
2018-06-09T05:59:07.472Z,13.37
2018-06-09T06:01:35.928Z,16.03
2018-06-09T06:04:04.380Z,12.93
2018-06-09T06:06:32.788Z,15.27
2018-06-09T06:09:01.279Z,14.30
2018-06-09T06:11:29.704Z,13.67
2018-06-09T06:13:58.259Z,11.97
2018-06-09T06:16:27.007Z,12.50
2018-06-09T06:18:55.539Z,12.73
2018-06-09T06:21:24.011Z,13.30
2018-06-09T06:23:51.437Z,13.73
2018-06-09T06:26:19.885Z,12.57
2018-06-09T06:28:48.301Z,12.40
2018-06-09T06:31:16.797Z,12.97
2018-06-09T06:33:45.779Z,12.30
2018-06-09T06:36:14.211Z,14.37
2018-06-09T06:38:42.685Z,12.93
2018-06-09T06:41:11.292Z,12.97
2018-06-09T06:43:39.698Z,12.80
2018-06-09T06:46:08.367Z,12.90
2018-06-09T06:48:36.835Z,13.57
2018-06-09T06:51:05.339Z,12.93
2018-06-09T06:53:33.756Z,11.80
2018-06-09T06:56:02.199Z,12.37
2018-06-09T06:58:30.850Z,13.00
2018-06-09T07:00:59.278Z,13.00
2018-06-09T07:03:27.981Z,12.67
2018-06-09T07:05:56.419Z,11.70
2018-06-09T07:08:24.885Z,11.37
2018-06-09T07:10:53.340Z,12.00
2018-06-09T07:13:21.719Z,12.97
2018-06-09T07:15:50.476Z,12.57
2018-06-09T07:18:19.883Z,12.40
2018-06-09T07:20:48.362Z,11.87
2018-06-09T07:23:17.167Z,12.43
2018-06-09T07:25:45.599Z,11.90
2018-06-09T07:28:14.118Z,12.07
2018-06-09T07:30:42.753Z,12.70
2018-06-09T07:33:11.228Z,14.27
2018-06-09T07:35:39.627Z,12.40
2018-06-09T07:38:08.671Z,12.60
2018-06-09T07:40:37.344Z,12.50
2018-06-09T07:43:05.816Z,10.80
2018-06-09T07:45:34.319Z,12.07
2018-06-09T07:48:02.772Z,11.87
2018-06-09T07:50:31.179Z,12.33
2018-06-09T07:52:59.661Z,11.40
2018-06-09T07:55:28.092Z,11.17
2018-06-09T07:57:56.525Z,10.73
2018-06-09T08:00:25.000Z,11.77
2018-06-09T08:02:53.443Z,12.43
2018-06-09T08:05:21.912Z,10.70
2018-06-09T08:07:50.424Z,11.77
2018-06-09T08:10:18.865Z,12.77
2018-06-09T08:12:47.515Z,12.57
2018-06-09T08:15:15.952Z,13.67
2018-06-09T08:17:44.608Z,11.47
2018-06-09T08:20:13.096Z,12.93
2018-06-09T08:22:41.544Z,13.13
2018-06-09T08:25:09.952Z,11.83
2018-06-09T08:27:38.405Z,13.13
2018-06-09T08:30:07.136Z,13.50
2018-06-09T08:32:35.963Z,13.83
2018-06-09T08:35:04.534Z,12.60
2018-06-09T08:37:33.168Z,20.13
2018-06-09T08:40:01.605Z,12.50
2018-06-09T08:42:30.017Z,12.60
2018-06-09T08:44:58.805Z,11.67
2018-06-09T08:47:27.237Z,12.87
2018-06-09T08:49:55.667Z,12.83
2018-06-09T08:52:24.107Z,10.20
2018-06-09T08:54:52.567Z,11.50
2018-06-09T08:57:21.632Z,12.33
2018-06-09T08:59:50.026Z,12.30
2018-06-09T09:02:18.472Z,11.10
2018-06-09T09:04:46.957Z,10.23
2018-06-09T09:07:15.408Z,10.40
2018-06-09T09:09:44.184Z,10.77
2018-06-09T09:12:12.645Z,10.83
2018-06-09T09:14:41.039Z,10.70
2018-06-09T09:17:09.487Z,11.40
2018-06-09T09:19:37.940Z,11.83
2018-06-09T09:22:06.821Z,11.60
2018-06-09T09:24:35.290Z,11.80
2018-06-09T09:27:03.787Z,11.43
2018-06-09T09:29:32.216Z,10.20
2018-06-09T09:32:00.631Z,11.80
2018-06-09T09:34:29.203Z,11.23
2018-06-09T09:36:57.652Z,10.27
2018-06-09T09:39:26.092Z,11.50
2018-06-09T09:41:54.528Z,10.50
2018-06-09T09:44:22.964Z,10.93
2018-06-09T09:46:51.376Z,10.00
2018-06-09T09:49:19.897Z,9.73
2018-06-09T09:51:48.632Z,10.00
2018-06-09T09:54:17.058Z,10.40
2018-06-09T09:56:45.514Z,11.73
2018-06-09T09:59:14.083Z,11.17
2018-06-09T10:01:42.495Z,11.10
2018-06-09T10:04:10.971Z,11.17
2018-06-09T10:06:39.387Z,10.20
2018-06-09T10:09:08.770Z,11.33
2018-06-09T10:11:37.215Z,10.30
2018-06-09T10:14:05.627Z,10.40
2018-06-09T10:16:34.284Z,10.43
2018-06-09T10:19:02.683Z,10.00
2018-06-09T10:21:31.364Z,9.50
2018-06-09T10:23:59.789Z,10.10
2018-06-09T10:26:28.593Z,9.30
2018-06-09T10:28:57.027Z,11.10
2018-06-09T10:31:25.702Z,10.70
2018-06-09T10:33:54.134Z,10.73
2018-06-09T10:36:22.844Z,10.30
2018-06-09T10:38:51.312Z,9.30
2018-06-09T10:41:19.727Z,10.00
2018-06-09T10:43:48.273Z,10.53
2018-06-09T10:46:16.676Z,10.10
2018-06-09T10:48:45.075Z,10.03
2018-06-09T10:51:13.510Z,10.20
2018-06-09T10:53:41.960Z,10.00
2018-06-09T10:56:10.596Z,9.03
2018-06-09T10:58:39.321Z,9.93
2018-06-09T11:01:07.809Z,10.37
2018-06-09T11:03:36.247Z,9.70
2018-06-09T11:06:04.663Z,9.10
2018-06-09T11:08:33.104Z,9.20
2018-06-09T11:11:01.591Z,10.03
2018-06-09T11:13:30.188Z,9.67
2018-06-09T11:15:58.607Z,9.87
2018-06-09T11:18:26.991Z,9.33
2018-06-09T11:20:55.423Z,9.60
2018-06-09T11:23:23.836Z,9.33
2018-06-09T11:25:52.285Z,9.20
2018-06-09T11:28:20.759Z,8.60
2018-06-09T11:30:49.270Z,9.90
2018-06-09T11:33:17.675Z,7.87
2018-06-09T11:35:46.083Z,8.83
2018-06-09T11:38:14.503Z,8.77
2018-06-09T11:40:42.928Z,9.50
2018-06-09T11:43:11.306Z,9.50
2018-06-09T11:45:39.752Z,8.60
2018-06-09T11:48:08.195Z,8.50
2018-06-09T11:50:36.590Z,8.63
2018-06-09T11:53:05.074Z,9.10
2018-06-09T11:55:33.484Z,9.27
2018-06-09T11:58:02.295Z,10.37
2018-06-09T12:00:30.727Z,8.57
2018-06-09T12:02:59.131Z,8.53
2018-06-09T12:05:27.553Z,8.67
2018-06-09T12:07:55.966Z,7.40
2018-06-09T12:10:24.378Z,7.80
2018-06-09T12:12:52.800Z,7.97
2018-06-09T12:15:21.527Z,8.43
2018-06-09T12:17:49.956Z,7.60
2018-06-09T12:20:18.363Z,7.23
2018-06-09T12:22:46.783Z,7.57
2018-06-09T12:25:15.507Z,7.80
2018-06-09T12:27:43.905Z,6.33
2018-06-09T12:30:12.328Z,6.23
2018-06-09T12:32:40.724Z,7.10
2018-06-09T12:35:09.167Z,6.80
2018-06-09T12:37:37.548Z,6.93
2018-06-09T12:40:06.544Z,7.43
2018-06-09T12:42:34.948Z,7.73
2018-06-09T12:45:03.389Z,6.90
2018-06-09T12:47:31.813Z,8.07
2018-06-09T12:50:00.231Z,6.70
2018-06-09T12:52:28.644Z,6.77
2018-06-09T12:54:57.202Z,6.30
2018-06-09T12:57:25.599Z,6.73
2018-06-09T12:59:54.074Z,5.80
2018-06-09T13:02:22.597Z,6.60
2018-06-09T13:04:50.977Z,6.30
2018-06-09T13:07:19.689Z,6.77
2018-06-09T13:09:48.100Z,5.90
2018-06-09T13:12:16.492Z,6.30
2018-06-09T13:14:44.910Z,7.30
2018-06-09T13:17:13.294Z,7.03
2018-06-09T13:19:41.707Z,7.53
2018-06-09T13:22:10.270Z,8.40
2018-06-09T13:24:38.688Z,7.40
2018-06-09T13:27:07.150Z,7.60
2018-06-09T13:29:35.560Z,6.93
2018-06-09T13:32:03.963Z,7.90
2018-06-09T13:34:32.382Z,7.70
2018-06-09T13:37:00.782Z,8.17
2018-06-09T13:39:29.180Z,7.97
2018-06-09T13:41:57.648Z,7.73
2018-06-09T13:44:26.080Z,8.67
2018-06-09T13:46:54.710Z,8.83
2018-06-09T13:49:23.307Z,10.50
2018-06-09T13:51:52.075Z,7.90
2018-06-09T13:54:20.533Z,7.80
2018-06-09T13:56:48.976Z,7.90
2018-06-09T13:59:17.402Z,6.20
2018-06-09T14:01:45.831Z,6.80
2018-06-09T14:04:14.267Z,6.67
2018-06-09T14:06:42.721Z,6.47
2018-06-09T14:09:11.123Z,6.67
2018-06-09T14:11:39.515Z,6.10
2018-06-09T14:14:07.938Z,6.33
2018-06-09T14:16:36.362Z,6.40
2018-06-09T14:19:05.059Z,8.30
2018-06-09T14:21:33.494Z,6.43
2018-06-09T14:24:01.912Z,7.90
2018-06-09T14:26:30.652Z,18.50
2018-06-09T14:28:59.331Z,12.43
2018-06-09T14:31:27.844Z,7.87
2018-06-09T14:33:56.250Z,14.67
2018-06-09T14:36:24.651Z,12.00
2018-06-09T14:38:53.175Z,7.33
2018-06-09T14:41:21.681Z,7.50
2018-06-09T14:43:50.200Z,7.53
2018-06-09T14:46:18.628Z,12.10
2018-06-09T14:48:47.044Z,8.27
2018-06-09T14:51:15.455Z,7.07
2018-06-09T14:53:44.065Z,6.87
2018-06-09T14:56:12.553Z,9.77
2018-06-09T14:58:40.967Z,5.50
2018-06-09T15:01:09.426Z,7.30
2018-06-09T15:03:37.955Z,7.47
2018-06-09T15:06:06.379Z,6.57
2018-06-09T15:08:34.806Z,6.03
2018-06-09T15:11:03.257Z,8.40
2018-06-09T15:13:31.743Z,8.30
2018-06-09T15:16:00.299Z,8.47
2018-06-09T15:18:28.818Z,8.40
2018-06-09T15:20:57.251Z,8.83
2018-06-09T15:23:25.647Z,7.73
2018-06-09T15:25:54.376Z,9.17
2018-06-09T15:28:22.798Z,9.33
2018-06-09T15:30:51.207Z,17.77
2018-06-09T15:33:19.705Z,9.40
2018-06-09T15:35:48.147Z,9.17
2018-06-09T15:38:16.555Z,9.20
2018-06-09T15:40:44.940Z,11.43
2018-06-09T15:43:13.366Z,10.27
2018-06-09T15:45:41.738Z,9.80
2018-06-09T15:48:10.308Z,10.07
2018-06-09T15:50:38.704Z,9.00
2018-06-09T15:53:07.140Z,11.27
2018-06-09T15:55:35.551Z,9.67
2018-06-09T15:58:03.999Z,7.90
2018-06-09T16:00:32.441Z,8.93
2018-06-09T16:03:00.914Z,11.37
2018-06-09T16:05:29.348Z,12.57
2018-06-09T16:07:57.780Z,20.10
2018-06-09T16:10:26.224Z,12.03
2018-06-09T16:13:17.302Z,8.33
2018-06-09T16:16:20.553Z,10.17
2018-06-09T16:29:30.621Z,13.30
2018-06-09T16:31:59.050Z,15.60
2018-06-09T16:34:27.507Z,13.13
2018-06-09T16:36:55.976Z,12.20
2018-06-09T16:39:24.407Z,13.00
2018-06-09T16:41:52.892Z,13.20
2018-06-09T16:44:21.353Z,10.33
2018-06-09T16:46:49.772Z,14.13
2018-06-09T16:49:18.207Z,10.13
2018-06-09T16:51:46.606Z,11.03
2018-06-09T16:54:15.004Z,10.50
2018-06-09T16:56:43.427Z,11.30
2018-06-09T16:59:11.888Z,16.33
2018-06-09T17:01:40.376Z,11.77
2018-06-09T17:04:08.811Z,10.17
2018-06-09T17:06:37.207Z,9.27
2018-06-09T17:09:08.187Z,9.97
2018-06-09T17:11:36.796Z,11.27
2018-06-09T17:14:05.604Z,11.63
2018-06-09T17:16:34.093Z,11.30
2018-06-09T17:19:02.487Z,11.70
2018-06-09T17:21:30.891Z,12.00
2018-06-09T17:23:59.332Z,13.00
2018-06-09T17:26:27.788Z,14.50
2018-06-09T17:28:56.219Z,13.47
2018-06-09T17:31:24.606Z,13.73
2018-06-09T17:33:53.267Z,18.27
2018-06-09T17:36:21.699Z,19.63
2018-06-09T17:38:50.112Z,18.40
2018-06-09T17:41:18.594Z,15.93
2018-06-09T17:43:47.079Z,15.00
2018-06-09T17:46:15.578Z,16.50
2018-06-09T17:48:44.023Z,15.70
2018-06-09T17:51:12.451Z,14.67
2018-06-09T17:53:40.928Z,20.20
2018-06-09T17:56:09.357Z,18.07
2018-06-09T17:58:37.820Z,15.83
2018-06-09T18:01:06.247Z,16.17
2018-06-09T18:03:34.692Z,15.30
2018-06-09T18:06:03.163Z,16.50
2018-06-09T18:08:31.628Z,19.67
2018-06-09T18:11:00.064Z,18.40
2018-06-09T18:13:28.459Z,16.70
2018-06-09T18:15:56.940Z,22.33
2018-06-09T18:18:25.359Z,24.07
2018-06-09T18:20:53.816Z,24.60
2018-06-09T18:23:22.277Z,17.90
2018-06-09T18:25:50.699Z,20.27
2018-06-09T18:28:19.195Z,21.73
2018-06-09T18:30:47.639Z,25.90
2018-06-09T18:33:16.255Z,25.10
2018-06-09T18:35:44.717Z,26.10
2018-06-09T18:38:13.245Z,21.10
2018-06-09T18:40:41.709Z,21.67
2018-06-09T18:43:10.200Z,25.30
2018-06-09T18:45:38.662Z,22.47
2018-06-09T18:48:07.096Z,20.77
2018-06-09T18:50:35.520Z,21.43
2018-06-09T18:53:03.987Z,19.17
2018-06-09T18:55:32.435Z,19.83
2018-06-09T18:58:01.038Z,20.57
2018-06-09T19:00:29.486Z,21.03
2018-06-09T19:02:57.935Z,23.90
2018-06-09T19:05:26.353Z,24.20
2018-06-09T19:07:54.830Z,25.40
2018-06-09T19:10:23.516Z,23.60
2018-06-09T19:12:52.050Z,23.40
2018-06-09T19:15:20.480Z,24.20
2018-06-09T19:17:48.895Z,27.67
2018-06-09T19:20:17.299Z,26.37
2018-06-09T19:22:45.787Z,24.33
2018-06-09T19:25:14.187Z,26.30
2018-06-09T19:27:42.736Z,29.23
2018-06-09T19:30:11.487Z,31.07
2018-06-09T19:32:39.935Z,30.80
2018-06-09T19:35:08.600Z,31.23
2018-06-09T19:37:37.060Z,30.33
2018-06-09T19:40:05.641Z,27.77
2018-06-09T19:42:34.097Z,28.70
2018-06-09T19:45:02.516Z,30.90
2018-06-09T19:47:30.971Z,30.30
2018-06-09T19:49:59.436Z,28.97
2018-06-09T19:52:27.870Z,26.77
2018-06-09T19:54:56.310Z,30.40
2018-06-09T19:57:24.869Z,25.60
2018-06-09T19:59:53.447Z,21.40
2018-06-09T20:02:21.932Z,25.20
2018-06-09T20:04:50.391Z,20.77
2018-06-09T20:07:18.972Z,23.87
2018-06-09T20:09:47.391Z,24.40
2018-06-09T20:12:15.914Z,24.97
2018-06-09T20:14:44.379Z,24.60
2018-06-09T20:17:12.832Z,25.90
2018-06-09T20:19:41.630Z,23.20
2018-06-09T20:22:10.089Z,26.57
2018-06-09T20:24:38.499Z,36.33
2018-06-09T20:27:07.154Z,36.00
2018-06-09T20:29:35.591Z,35.60
2018-06-09T20:32:04.259Z,32.60
2018-06-09T20:34:32.806Z,30.00
2018-06-09T20:37:01.260Z,31.60
2018-06-09T20:39:30.204Z,32.50
2018-06-09T20:41:59.189Z,32.10
2018-06-09T20:44:27.636Z,32.60
2018-06-09T20:46:56.407Z,33.57
2018-06-09T20:49:25.215Z,32.70
2018-06-09T20:51:54.319Z,32.73
2018-06-09T20:54:23.147Z,31.87
2018-06-09T20:56:51.646Z,34.27
2018-06-09T20:59:20.111Z,35.73
2018-06-09T21:01:48.553Z,35.03
2018-06-09T21:04:17.090Z,36.90
2018-06-09T21:06:45.494Z,38.77
2018-06-09T21:09:13.955Z,39.10
2018-06-09T21:11:42.395Z,37.47
2018-06-09T21:14:10.867Z,38.17
2018-06-09T21:16:39.311Z,31.47
2018-06-09T21:19:07.755Z,28.70
2018-06-09T21:21:36.203Z,26.87
2018-06-09T21:24:04.674Z,26.73
2018-06-09T21:26:38.654Z,26.33
2018-06-09T21:29:12.300Z,23.23
2018-06-09T21:31:44.089Z,24.47
2018-06-09T21:34:28.929Z,31.50
2018-06-09T21:37:01.512Z,31.77
2018-06-09T21:39:35.200Z,30.20
2018-06-09T21:42:09.015Z,29.70
2018-06-09T21:44:37.870Z,29.37
2018-06-09T21:47:06.412Z,27.70
2018-06-09T21:49:34.927Z,27.27
2018-06-09T21:52:03.348Z,26.00
2018-06-09T21:54:31.952Z,28.73
2018-06-09T21:57:00.471Z,32.00
2018-06-09T21:59:29.072Z,30.80
2018-06-09T22:01:57.504Z,30.13
2018-06-09T22:04:25.947Z,29.30
2018-06-09T22:06:54.360Z,29.60
2018-06-09T22:09:22.807Z,28.00
2018-06-09T22:11:51.220Z,26.70
2018-06-09T22:14:19.656Z,27.57
2018-06-09T22:16:48.099Z,29.57
2018-06-09T22:19:16.545Z,30.30
2018-06-09T22:21:45.023Z,30.60
2018-06-09T22:24:13.462Z,32.80
2018-06-09T22:26:42.206Z,34.23
2018-06-09T22:29:10.898Z,34.50
2018-06-09T22:31:39.312Z,32.73
2018-06-09T22:34:07.731Z,33.70
2018-06-09T22:36:36.154Z,31.77
2018-06-09T22:39:07.260Z,29.87
2018-06-09T22:41:35.952Z,29.97
2018-06-09T22:44:04.412Z,30.03
2018-06-09T22:46:32.951Z,31.60
2018-06-09T22:49:01.388Z,31.73
2018-06-09T22:51:29.830Z,31.80
2018-06-09T22:53:58.257Z,32.07
2018-06-09T22:56:26.659Z,26.63
2018-06-09T22:58:55.239Z,23.97
2018-06-09T23:01:23.711Z,25.30
2018-06-09T23:03:52.552Z,25.93
2018-06-09T23:06:20.988Z,24.17
2018-06-09T23:08:49.606Z,28.17
2018-06-09T23:11:18.055Z,27.10
2018-06-09T23:13:46.509Z,28.20
2018-06-09T23:16:14.980Z,31.50
2018-06-09T23:18:43.391Z,34.47
2018-06-09T23:21:11.822Z,34.87
2018-06-09T23:23:40.346Z,34.70
2018-06-09T23:26:08.735Z,34.70
2018-06-09T23:28:37.151Z,36.07
2018-06-09T23:31:05.742Z,41.20
2018-06-09T23:33:34.158Z,37.80
2018-06-09T23:36:02.704Z,34.07
2018-06-09T23:38:31.118Z,32.50
2018-06-09T23:40:59.578Z,33.07
2018-06-09T23:43:28.112Z,32.27
2018-06-09T23:45:56.898Z,33.40
2018-06-09T23:48:25.308Z,33.97
2018-06-09T23:50:53.743Z,33.30
2018-06-09T23:53:22.227Z,36.50
2018-06-09T23:55:50.663Z,33.20
2018-06-09T23:58:19.123Z,32.93
